• Join FlightAware (Why Join?)
  • Login
  • US Flag 
07:19AM EST


 

Airport Tracker/Info


-or-


 

Live Flight TrackerFlight Track Log ✈ ASQ5025 ✈ 04-May-2013 ✈ KMKE - KLGA

Flight Track Log - Related Links

Times and Time Zones

All times are in EDT time to prevent confusion due to time zone crossing. See the ASQ5025 flight status page for this flight to view local times or setup timezone preferences in your user account.

Time Position Orientation Groundspeed Altitude Reporting Facility
EDT Latitude Longitude Course Direction KTS MPH feet Rate Location/Type
01:51PM 42.9500 -87.8833 90° East 147 169 1,600  Level KMKE
01:51PM 42.9500 -87.8500 90° East 154 177 2,100 1,920 Climbing KMKE
01:52PM 42.9303 -87.8158 128° Southeast 197 227 4,500 2,280 Climbing Chicago Center
01:53PM 42.8708 -87.8997 226° Southwest 263 303 6,700 2,400 Climbing Chicago Center
01:54PM 42.8269 -87.9808 234° Southwest 265 305 9,500 2,400 Climbing Chicago Center
01:55PM 42.7631 -88.0378 213° Southwest 283 326 11,700 2,520 Climbing Chicago Center
01:56PM 42.6853 -88.0403 181° South 278 320 14,700 2,520 Climbing Chicago Center
01:57PM 42.6072 -88.0436 182° South 279 321 16,900 1,620 Climbing Chicago Center
01:58PM 42.5192 -88.0461 181° South 311 358 18,100 1,260 Climbing Chicago Center
01:59PM 42.4389 -87.9942 154° Southeast 336 387 19,500 1,560 Climbing Chicago Center
02:01PM 42.3522 -87.8939 139° Southeast 349 402 21,300 1,500 Climbing Chicago Center
02:02PM 42.2869 -87.8172 139° Southeast 358 412 22,600 1,380 Climbing Chicago Center
02:03PM 42.2478 -87.6606 109° East 381 438 24,200 1,440 Climbing Chicago Center
02:04PM 42.2383 -87.5153 95° East 385 443 25,600 1,260 Climbing Chicago Center
02:05PM 42.2281 -87.3661 95° East 396 456 26,900 1,200 Climbing Chicago Center
02:06PM 42.2175 -87.2178 95° East 398 458 28,100 1,020 Climbing Chicago Center
02:07PM 42.2075 -87.0672 95° East 402 463 29,100 900 Climbing Chicago Center
02:08PM 42.1953 -86.9131 96° East 411 473 30,000 780 Climbing Chicago Center
02:09PM 42.1858 -86.7578 95° East 416 479 30,800 780 Climbing Chicago Center
02:10PM 42.1722 -86.5906 96° East 423 487 31,600 720 Climbing Chicago Center
02:11PM 42.1600 -86.4308 96° East 428 493 32,300 780 Climbing Chicago Center
02:12PM 42.1481 -86.2719 96° East 427 491 33,200 840 Climbing Chicago Center
02:13PM 42.1361 -86.1128 96° East 426 490 34,100 900 Climbing Chicago Center
02:14PM 42.1219 -85.9403 96° East 418 481 35,100 900 Climbing Chicago Center
02:15PM 42.1092 -85.7847 96° East 419 482 36,000 840 Climbing Chicago Center
02:16PM 42.0969 -85.6331 96° East 414 476 36,900 480 Climbing Chicago Center
02:17PM 42.0831 -85.4822 97° East 410 472 37,000  Climbing Chicago Center
02:18PM 42.0678 -85.2953 96° East 417 480 37,000  Level Chicago Center
02:19PM 42.0567 -85.1478 96° East 412 474 37,000  Level Cleveland Center
02:20PM 42.0442 -84.9903 96° East 412 474 37,000  Level Cleveland Center
02:21PM 42.0294 -84.8269 97° East 417 480 37,000  Level Cleveland Center
02:22PM 42.0144 -84.6667 97° East 428 493 37,000  Level Cleveland Center
02:23PM 41.9992 -84.5064 97° East 428 493 37,000  Level Cleveland Center
02:24PM 41.9836 -84.3517 98° East 428 493 37,000  Level Cleveland Center
02:25PM 41.9672 -84.2083 99° East 422 486 37,000  Level Cleveland Center
02:26PM 41.9511 -84.0567 98° East 422 486 37,000  Level Cleveland Center
02:27PM 41.9347 -83.9022 98° East 422 486 37,000  Level Cleveland Center
02:28PM 41.9206 -83.7478 97° East 417 480 37,000  Level Cleveland Center
02:29PM 41.9036 -83.5964 99° East 417 480 37,000  Level Cleveland Center
02:30PM 41.8889 -83.4394 97° East 412 474 37,000  Level Cleveland Center
02:31PM 41.8717 -83.2881 99° East 412 474 37,000  Level Cleveland Center
02:32PM 41.8544 -83.1311 98° East 412 474 37,000  Level Cleveland Center
02:33PM 41.8389 -82.9800 98° East 412 474 37,000  Level Cleveland Center
02:34PM 41.8233 -82.8233 98° East 412 474 37,000  Level Cleveland Center
02:35PM 41.8075 -82.6669 98° East 412 474 37,000  Level Cleveland Center
02:36PM 41.7894 -82.5131 99° East 417 480 37,000  Level Cleveland Center
02:37PM 41.7711 -82.3539 99° East 417 480 37,000  Level Cleveland Center
02:38PM 41.7547 -82.1975 98° East 422 486 37,000  Level Cleveland Center
02:39PM 41.7381 -82.0467 98° East 422 486 37,000  Level Cleveland Center
02:40PM 41.7192 -81.8878 99° East 422 486 37,000  Level Cleveland Center
02:41PM 41.6981 -81.7150 99° East 428 493 37,000  Level Cleveland Center
02:42PM 41.6806 -81.5561 98° East 428 493 37,000  Level Cleveland Center
02:43PM 41.6611 -81.3975 99° East 428 493 37,000  Level Cleveland Center
02:44PM 41.6411 -81.2389 100° East 428 493 37,000  Level Cleveland Center
02:45PM 41.6233 -81.0803 98° East 428 493 37,000  Level Cleveland Center
02:46PM 41.6008 -80.9192 101° East 435 501 37,000  Level Cleveland Center
02:47PM 41.5825 -80.7747 100° East 435 501 37,000  Level Cleveland Center
02:48PM 41.5619 -80.6164 100° East 435 501 37,000  Level Cleveland Center
02:49PM 41.5408 -80.4556 100° East 430 495 37,000  Level Cleveland Center
02:50PM 41.5197 -80.2781 99° East 430 495 37,000  Level Cleveland Center
02:51PM 41.4983 -80.1203 100° East 430 495 37,000  Level Cleveland Center
02:52PM 41.4789 -79.9844 101° East 423 487 37,000  Level Cleveland Center
02:53PM 41.4592 -79.8267 99° East 423 487 37,000  Level Cleveland Center
02:54PM 41.4353 -79.6692 101° East 429 494 37,000  Level Cleveland Center
02:55PM 41.3839 -79.5067 113° Southeast 424 488 37,000  Level Cleveland Center
02:56PM 41.3094 -79.3806 128° Southeast 424 488 37,000  Level Cleveland Center
02:57PM 41.2372 -79.2550 127° Southeast 429 494 37,000 -300 Level Cleveland Center
02:58PM 41.2103 -79.0981 103° East 421 484 36,400 -1,020 Descending Cleveland Center
02:59PM 41.2122 -78.9325 89° East 421 484 35,000 -720 Descending Cleveland Center
03:00PM 41.2139 -78.7669 89° East 434 499 35,000  Level Cleveland Center
03:02PM 41.2169 -78.3817 89° East 456 525 35,000 -360 Level New York Center
03:03PM 41.2169 -78.2161 90° East 456 525 33,900 -1,020 Descending New York Center
03:04PM 41.2039 -78.0572 96° East 451 519 33,000 -480 Descending New York Center
03:05PM 41.1825 -77.8950 100° East 446 513 33,000  Level New York Center
03:06PM 41.1633 -77.7275 99° East 451 519 33,000  Level New York Center
03:07PM 41.1414 -77.5656 100° East 451 519 33,000 -360 Level New York Center
03:08PM 41.1236 -77.4039 98° East 446 513 32,400 -780 Descending New York Center
03:09PM 41.1022 -77.2642 101° East 441 507 31,500 -1,080 Descending New York Center
03:10PM 41.0783 -77.0883 100° East 435 501 30,300 -1,620 Descending New York Center
03:11PM 41.0592 -76.9381 100° East 429 494 28,400 -2,100 Descending New York Center
03:12PM 41.0375 -76.7900 101° East 412 474 26,200 -2,160 Descending New York Center
03:13PM 41.0175 -76.6508 101° East 397 457 24,100 -2,040 Descending New York Center
03:14PM 40.9864 -76.5189 107° East 380 437 22,100 -1,920 Descending New York Center
03:15PM 40.9550 -76.3925 108° East 370 426 20,300 -1,800 Descending New York Center
03:16PM 40.9294 -76.2722 106° East 350 403 18,500 -1,680 Descending New York Center
03:17PM 40.9014 -76.1547 107° East 343 395 17,100 -1,440 Descending New York Center
03:18PM 40.8767 -76.0567 108° East 329 379 15,700 -1,560 Descending New York Center
03:19PM 40.8469 -75.9308 107° East 324 373 14,000 -1,380 Descending New York Center
03:20PM 40.8203 -75.8247 108° East 319 367 13,000 -540 Descending New York Center
03:21PM 40.7933 -75.7186 109° East 308 354 13,000  Level New York Center
03:22PM 40.7703 -75.6236 108° East 308 354 13,000  Level New York Center
03:23PM 40.7453 -75.5206 108° East 303 349 13,000  Level New York Center
03:24PM 40.7203 -75.4122 107° East 303 349 13,000  Level New York Center
03:25PM 40.6939 -75.2900 106° East 308 354 13,000 -360 Level New York Center
03:26PM 40.6747 -75.1928 105° East 308 354 12,400 -900 Descending New York Center
03:27PM 40.6242 -75.0939 124° Southeast 295 339 11,200 -1,200 Descending New York Center
03:28PM 40.5731 -75.0114 129° Southeast 290 334 10,000 -660 Descending New York Center
03:29PM 40.5411 -74.9139 113° Southeast 290 334 10,000  Level New York Center
03:30PM 40.5167 -74.8500 117° Southeast 289 333 10,000  Level New York TRACON
03:31PM 40.4833 -74.7500 114° Southeast 294 338 10,000  Level New York TRACON
03:32PM 40.4667 -74.6500 102° East 299 344 10,000  Level New York TRACON
03:33PM 40.4333 -74.5500 114° Southeast 299 344 10,000  Level New York TRACON
03:34PM 40.4500 -74.4500 78° East 286 329 10,000  Level New York TRACON
03:35PM 40.4833 -74.3500 66° East 286 329 10,000 -480 Level New York TRACON
03:36PM 40.5000 -74.2667 75° East 269 310 9,200 -1,320 Descending New York TRACON
03:37PM 40.5333 -74.1833 62° Northeast 260 299 7,500 -1,740 Descending New York TRACON
03:38PM 40.5833 -74.1167 45° Northeast 250 288 5,800 -1,800 Descending New York TRACON
03:39PM 40.6500 -74.0667 30° Northeast 242 278 4,000 -900 Descending New York TRACON
03:40PM 40.7000 -74.0333 27° Northeast 243 280 4,000  Level New York TRACON
03:41PM 40.7667 -74.0000 21° North 243 280 4,000 -60 Level New York TRACON
03:42PM 40.8333 -73.9667 21° North 250 288 3,900 -540 Descending New York TRACON
03:43PM 40.8833 -73.9167 37° Northeast 248 285 3,000 -600 Descending New York TRACON
03:44PM 40.9167 -73.8667 49° Northeast 196 226 2,800 -600 Descending New York TRACON
03:45PM 40.8833 -73.8333 143° Southeast 173 199 1,900 -720 Descending New York TRACON
03:46PM 40.8333 -73.8333 180° South 135 155 1,300 -660 Descending New York TRACON
03:47PM 40.8167 -73.8500 217° Southwest 124 143 600 -720 Descending New York TRACON
03:49PM 40.7772 -73.8726 180° South  Level Estimated
03:56PM 40.7772 -73.8726 180° South  Level Estimated
03:57PM 40.7772 -73.8726 180° South  Level Estimated